Time;durP1;ratioP1;P1;durP2;ratioP2;P2;SDS_P1;SDS_P2;PMS_P1;PMS_P2;Temp;Humidity;BMP_temperature;BMP_pressure;BME280_temperature;BME280_humidity;BME280_pressure;Samples;Min_cycle;Max_cycle;Signal;HPM_P1;HPM_P2
2023/09/01 00:01:46;;;;;;;457.07;443.00;;;16.40;99.90;;;;;;5023342;28;20183;-94
2023/09/01 00:04:12;;;;;;;471.33;456.30;;;16.50;99.90;;;;;;5016914;28;20203;-94
2023/09/01 00:06:37;;;;;;;463.60;448.70;;;16.50;99.90;;;;;;5041766;28;20207;-94
2023/09/01 00:09:04;;;;;;;459.57;445.20;;;16.60;99.90;;;;;;5042960;28;20176;-93
2023/09/01 00:11:29;;;;;;;463.25;448.73;;;16.50;99.90;;;;;;5047338;28;20221;-92
2023/09/01 00:13:58;;;;;;;454.23;439.50;;;16.50;99.90;;;;;;5020846;28;20560;-94
2023/09/01 00:16:23;;;;;;;470.97;455.77;;;16.40;99.90;;;;;;5004038;28;20179;-93
2023/09/01 00:18:49;;;;;;;444.93;430.77;;;16.40;99.90;;;;;;5003797;28;20185;-92
2023/09/01 00:21:15;;;;;;;454.23;439.77;;;16.30;99.90;;;;;;5020442;28;20178;-93
2023/09/01 00:23:40;;;;;;;445.97;432.10;;;16.40;99.90;;;;;;5019283;28;20215;-93
2023/09/01 00:26:06;;;;;;;462.75;448.13;;;16.40;99.90;;;;;;5020735;28;20191;-93
2023/09/01 00:28:32;;;;;;;462.77;447.98;;;16.30;99.90;;;;;;5001045;28;20195;-94
2023/09/01 00:31:00;;;;;;;460.03;445.27;;;16.30;99.90;;;;;;5003657;28;20183;-93
2023/09/01 00:33:28;;;;;;;459.53;444.97;;;16.30;99.90;;;;;;5020538;28;20238;-93
2023/09/01 00:35:55;;;;;;;432.03;418.63;;;16.30;99.90;;;;;;5003514;28;20190;-93
2023/09/01 00:38:24;;;;;;;404.03;391.60;;;16.30;99.90;;;;;;5019697;28;20205;-93
2023/09/01 00:40:50;;;;;;;427.43;413.90;;;16.30;99.90;;;;;;5019372;28;20178;-91
2023/09/01 00:43:16;;;;;;;398.63;386.80;;;16.30;99.90;;;;;;5020300;28;20691;-93
2023/09/01 00:45:42;;;;;;;424.00;410.83;;;16.40;99.90;;;;;;5019507;28;20764;-93
2023/09/01 00:48:10;;;;;;;437.73;424.17;;;16.30;99.90;;;;;;5018946;28;20245;-93
2023/09/01 00:50:36;;;;;;;447.27;433.33;;;16.30;99.90;;;;;;5020021;28;20177;-92
2023/09/01 00:53:05;;;;;;;417.13;404.43;;;16.20;99.90;;;;;;5029861;28;20251;-92
2023/09/01 00:55:31;;;;;;;434.87;421.40;;;16.30;99.90;;;;;;5038990;28;20176;-93
2023/09/01 00:57:57;;;;;;;423.87;410.67;;;16.30;99.90;;;;;;5020544;28;20205;-93
2023/09/01 01:00:23;;;;;;;426.90;413.70;;;16.40;99.90;;;;;;5040974;28;20770;-94
2023/09/01 01:02:49;;;;;;;417.87;404.83;;;16.40;99.90;;;;;;5040616;28;20593;-94
2023/09/01 01:05:16;;;;;;;412.47;399.87;;;16.40;99.90;;;;;;5040437;28;20272;-92
2023/09/01 01:08:10;;;;;;;425.00;411.80;;;16.40;99.90;;;;;;5050400;28;20174;-92
2023/09/01 01:10:41;;;;;;;417.90;405.10;;;;;;;;;;5053570;28;20198;-93
2023/09/01 01:13:11;;;;;;;412.23;399.70;;;;;;;;;;5057019;28;20198;-94
2023/09/01 01:15:37;;;;;;;423.17;410.10;;;;;;;;;;5056707;28;20166;-93
2023/09/01 01:18:06;;;;;;;429.03;415.37;;;;;;;;;;5045503;28;20185;-94
2023/09/01 01:20:34;;;;;;;442.57;428.87;;;;;;;;;;5003348;28;20629;-92
2023/09/01 01:23:11;;;;;;;444.43;430.80;;;;;;;;;;5003168;28;20226;-92
2023/09/01 01:25:37;;;;;;;431.13;417.77;;;;;;;;;;5018912;28;20276;-92
2023/09/01 01:28:07;;;;;;;359.70;348.80;;;;;;;;;;5019624;28;20190;-91
2023/09/01 01:30:34;;;;;;;329.47;319.27;;;;;;;;;;5030184;28;20510;-94
2023/09/01 01:33:00;;;;;;;336.90;326.60;;;;;;;;;;5044019;28;20216;-92
2023/09/01 01:35:35;;;;;;;350.73;340.23;;;;;;;;;;5020415;28;20188;-93
2023/09/01 01:38:04;;;;;;;339.90;329.77;;;;;;;;;;5038669;28;20291;-92
2023/09/01 01:40:31;;;;;;;341.33;331.13;;;;;;;;;;5037839;28;20185;-91
2023/09/01 01:43:00;;;;;;;363.93;353.10;;;;;;;;;;5037836;28;20192;-92
2023/09/01 01:45:27;;;;;;;326.77;317.00;;;;;;;;;;5018234;28;20189;-93
2023/09/01 01:47:53;;;;;;;345.73;335.60;;;;;;;;;;5018097;28;20177;-92
2023/09/01 01:50:19;;;;;;;355.07;344.43;;;;;;;;;;4998945;28;20559;-93
2023/09/01 01:52:45;;;;;;;352.83;342.10;;;;;;;;;;4999810;28;20206;-92
2023/09/01 01:55:11;;;;;;;336.43;326.50;;;;;;;;;;5021136;28;20199;-92
2023/09/01 01:57:37;;;;;;;351.10;340.80;;;;;;;;;;5037784;28;20188;-91
2023/09/01 02:00:11;;;;;;;399.53;387.23;;;;;;;;;;5052441;28;20196;-92
2023/09/01 02:02:37;;;;;;;399.80;387.70;;;;;;;;;;5019868;28;20201;-92
2023/09/01 02:05:06;;;;;;;421.50;408.63;;;;;;;;;;5019875;28;20210;-93
2023/09/01 02:07:32;;;;;;;433.40;419.60;;;;;;;;;;5040257;28;20196;-92
2023/09/01 02:09:58;;;;;;;409.23;396.40;;;;;;;;;;5039344;28;20186;-92
2023/09/01 02:12:24;;;;;;;431.73;418.53;;;;;;;;;;5043246;28;20212;-92
2023/09/01 02:14:50;;;;;;;356.27;345.67;;;;;;;;;;5039651;28;20193;-93
2023/09/01 02:17:16;;;;;;;359.83;348.80;;;;;;;;;;5038423;28;20201;-93
2023/09/01 02:19:42;;;;;;;347.83;337.70;;;;;;;;;;5038749;28;20211;-92
2023/09/01 02:22:08;;;;;;;335.93;326.00;;;;;;;;;;5039284;28;20188;-92
2023/09/01 02:24:35;;;;;;;353.03;342.50;;;;;;;;;;5021808;28;20240;-93
2023/09/01 02:27:01;;;;;;;370.53;359.57;;;;;;;;;;5021880;28;20223;-92
2023/09/01 02:29:27;;;;;;;345.23;334.90;;;;;;;;;;5041148;28;20315;-92
2023/09/01 02:31:53;;;;;;;341.27;331.10;;;;;;;;;;5026852;28;20214;-92
2023/09/01 02:34:19;;;;;;;330.03;320.20;;;;;;;;;;5030114;28;20220;-93
2023/09/01 02:36:46;;;;;;;318.47;309.20;;;;;;;;;;5020905;28;20179;-92
2023/09/01 02:39:12;;;;;;;338.87;328.90;;;;;;;;;;5024242;28;20169;-93
2023/09/01 02:41:38;;;;;;;335.70;325.77;;;;;;;;;;5023239;28;20190;-93
2023/09/01 02:44:04;;;;;;;328.97;319.07;;;;;;;;;;5039035;28;20199;-93
2023/09/01 02:46:30;;;;;;;324.30;314.53;;;;;;;;;;5039051;28;20195;-94
2023/09/01 02:48:56;;;;;;;339.70;329.40;;;;;;;;;;5038244;28;20248;-93
2023/09/01 02:51:26;;;;;;;347.40;336.97;;;;;;;;;;5021668;28;20193;-92
2023/09/01 02:53:52;;;;;;;334.57;324.63;;;;;;;;;;5045115;28;20209;-93
2023/09/01 02:56:18;;;;;;;346.57;336.27;;;;;;;;;;5026501;28;20195;-94
2023/09/01 02:58:45;;;;;;;345.13;334.97;;;;;;;;;;5006187;28;20181;-93
2023/09/01 03:01:12;;;;;;;341.87;331.70;;;;;;;;;;5022712;28;20272;-93
2023/09/01 03:03:45;;;;;;;352.33;341.97;;;;;;;;;;5023010;28;20251;-94
2023/09/01 03:06:16;;;;;;;341.63;331.60;;;;;;;;;;5033068;28;20181;-94
2023/09/01 03:08:43;;;;;;;372.53;361.57;;;;;;;;;;5043090;28;20211;-93
2023/09/01 03:11:13;;;;;;;374.57;363.27;;;;;;;;;;5063192;28;20187;-93
2023/09/01 03:13:41;;;;;;;345.73;335.47;;;;;;;;;;5063526;28;20208;-93
2023/09/01 03:16:07;;;;;;;365.90;355.03;;;;;;;;;;5063330;28;20183;-93
2023/09/01 03:18:42;;;;;;;372.27;361.37;;;;;;;;;;5063828;28;20177;-94
2023/09/01 03:21:26;;;;;;;361.10;350.20;;;;;;;;;;5063354;28;20194;-93
2023/09/01 03:23:53;;;;;;;379.87;368.30;;;;;;;;;;5046203;28;20302;-92
2023/09/01 03:26:21;;;;;;;396.40;384.53;;;;;;;;;;5044206;28;20616;-93
2023/09/01 03:28:49;;;;;;;385.77;374.33;;;;;;;;;;5026831;28;20215;-93
2023/09/01 03:31:15;;;;;;;403.67;391.47;;;;;;;;;;5026788;28;20198;-92
2023/09/01 03:33:41;;;;;;;391.83;380.17;;;;;;;;;;5042416;28;20247;-94
2023/09/01 03:36:10;;;;;;;392.37;380.37;;;;;;;;;;5023573;28;20243;-94
2023/09/01 03:38:37;;;;;;;395.90;383.97;;;;;;;;;;5043260;28;20187;-94
2023/09/01 03:41:04;;;;;;;403.47;391.33;;;;;;;;;;5027866;28;20185;-93
2023/09/01 03:43:30;;;;;;;373.17;362.13;;;;;;;;;;5022420;28;20228;-92
2023/09/01 03:45:57;;;;;;;406.27;394.10;;;;;;;;;;5020163;28;20269;-93
2023/09/01 03:48:24;;;;;;;407.03;394.80;;;;;;;;;;5035842;28;20461;-91
2023/09/01 03:51:09;;;;;;;429.77;416.77;;;;;;;;;;5037813;28;20212;-92
2023/09/01 03:53:35;;;;;;;403.67;391.57;;;;;;;;;;5021868;28;20212;-94
2023/09/01 03:56:12;;;;;;;423.97;411.03;;;;;;;;;;5031163;28;20183;-94
2023/09/01 03:58:39;;;;;;;425.30;412.33;;;;;;;;;;5047192;28;20219;-92
2023/09/01 04:01:08;;;;;;;397.17;385.33;;;;;;;;;;5046831;28;20265;-94
2023/09/01 04:03:37;;;;;;;384.20;372.97;;;;;;;;;;5045239;28;20304;-93
2023/09/01 04:06:05;;;;;;;364.27;353.67;;;;;;;;;;5041842;28;20389;-94
2023/09/01 04:08:31;;;;;;;373.70;362.40;;;;;;;;;;5043014;28;20208;-92
2023/09/01 04:10:57;;;;;;;373.47;362.47;;;;;;;;;;5046453;28;20605;-92
2023/09/01 04:13:23;;;;;;;400.73;388.73;;;;;;;;;;5022618;28;20696;-92
2023/09/01 04:15:50;;;;;;;382.07;370.83;;;;;;;;;;5020205;28;20184;-94
2023/09/01 04:18:16;;;;;;;393.73;381.80;;;;;;;;;;5020959;28;20187;-92
2023/09/01 04:20:49;;;;;;;393.07;381.37;;;;;;;;;;5021200;28;20183;-92
2023/09/01 04:23:15;;;;;;;365.47;354.73;;;;;;;;;;5022430;28;20237;-92
2023/09/01 04:25:43;;;;;;;372.13;361.13;;;;;;;;;;5030104;28;20810;-94
2023/09/01 04:28:10;;;;;;;403.57;391.43;;;;;;;;;;5035309;28;20178;-94
2023/09/01 04:30:38;;;;;;;426.27;413.20;;;;;;;;;;5027554;28;20197;-94
2023/09/01 04:33:05;;;;;;;427.00;413.73;;;;;;;;;;5000690;28;20222;-93
2023/09/01 04:35:31;;;;;;;405.90;393.80;;;;;;;;;;5020877;28;20813;-93
2023/09/01 04:37:57;;;;;;;400.42;388.48;;;;;;;;;;5023779;28;20629;-93
2023/09/01 04:40:24;;;;;;;400.87;388.80;;;;;;;;;;5027073;28;20178;-94
2023/09/01 04:42:52;;;;;;;354.53;344.33;;;;;;;;;;5036523;28;20186;-94
2023/09/01 04:45:18;;;;;;;386.43;374.77;;;;;;;;;;5036191;28;20187;-93
2023/09/01 04:47:44;;;;;;;380.60;369.40;;;;;;;;;;5038383;28;20256;-94
2023/09/01 04:50:10;;;;;;;371.20;360.10;;;;;;;;;;5040117;28;20208;-92
2023/09/01 04:52:37;;;;;;;374.10;362.97;;;;;;;;;;5039767;28;20223;-93
2023/09/01 04:55:06;;;;;;;382.53;371.23;;;;;;;;;;5046874;28;20311;-93
2023/09/01 04:57:32;;;;;;;393.93;382.20;;;;;;;;;;5021939;28;20191;-92
2023/09/01 04:59:58;;;;;;;416.23;403.67;;;;;;;;;;5036824;28;20244;-93
2023/09/01 05:02:24;;;;;;;413.33;400.83;;;;;;;;;;5037787;28;20196;-92
2023/09/01 05:04:50;;;;;;;352.80;342.50;;;;;;;;;;5020225;28;20236;-91
2023/09/01 05:07:16;;;;;;;405.87;393.57;;;;;;;;;;5039258;28;20187;-92
2023/09/01 05:09:42;;;;;;;396.70;384.90;;;;;;;;;;5047520;28;20227;-93
2023/09/01 05:12:08;;;;;;;396.23;384.40;;;;;;;;;;5063227;28;20225;-93
2023/09/01 05:14:34;;;;;;;384.70;373.27;;;;;;;;;;5048267;28;20197;-92
2023/09/01 05:17:01;;;;;;;393.73;381.97;;;;;;;;;;5017643;28;20187;-92
2023/09/01 05:19:27;;;;;;;406.03;394.13;;;;;;;;;;5020670;28;20185;-92
2023/09/01 05:21:53;;;;;;;394.57;382.93;;;;;;;;;;5039457;28;20188;-93
2023/09/01 05:24:19;;;;;;;398.50;386.67;;;;;;;;;;5020124;28;20201;-93
2023/09/01 05:26:45;;;;;;;401.90;390.10;;;;;;;;;;5039161;28;20189;-93
2023/09/01 05:29:11;;;;;;;396.70;384.83;;;;;;;;;;5019036;28;20189;-95
2023/09/01 05:31:37;;;;;;;416.67;404.17;;;;;;;;;;5022891;28;20668;-92
2023/09/01 05:34:03;;;;;;;426.63;413.70;;;;;;;;;;5029284;28;20281;-92
2023/09/01 05:36:30;;;;;;;410.83;398.73;;;;;;;;;;5037666;28;20234;-93
2023/09/01 05:38:56;;;;;;;377.37;365.87;;;;;;;;;;5035035;28;20618;-93
2023/09/01 05:41:22;;;;;;;379.47;368.47;;;;;;;;;;5035092;28;20192;-94
2023/09/01 05:43:50;;;;;;;402.90;390.90;;;;;;;;;;5033122;28;20682;-93
2023/09/01 05:46:19;;;;;;;394.97;383.33;;;;;;;;;;5001876;28;20185;-94
2023/09/01 05:48:46;;;;;;;392.03;380.50;;;;;;;;;;5019209;28;20196;-93
2023/09/01 05:51:12;;;;;;;407.20;395.10;;;;;;;;;;5018863;28;20196;-92
2023/09/01 05:53:38;;;;;;;407.83;395.53;;;;;;;;;;5018953;28;20213;-93
2023/09/01 05:56:04;;;;;;;412.23;399.93;;;;;;;;;;5001418;28;20189;-93
2023/09/01 05:58:30;;;;;;;408.37;396.27;;;;;;;;;;5008596;28;20225;-93
2023/09/01 06:00:56;;;;;;;415.97;403.60;;;;;;;;;;5015297;28;20188;-94
2023/09/01 06:03:22;;;;;;;468.67;453.93;;;;;;;;;;5013612;28;20247;-93
2023/09/01 06:05:48;;;;;;;433.97;420.93;;;;;;;;;;5009342;28;20192;-94
2023/09/01 06:08:18;;;;;;;405.30;393.20;;;;;;;;;;5016080;28;20191;-94
2023/09/01 06:10:45;;;;;;;407.03;394.70;;;;;;;;;;5007585;28;20185;-93
2023/09/01 06:13:11;;;;;;;444.37;430.70;;;;;;;;;;5011463;28;20217;-93
2023/09/01 06:15:37;;;;;;;435.23;420.93;;;;;;;;;;5008555;28;20252;-94
2023/09/01 06:18:03;;;;;;;433.80;420.70;;;;;;;;;;5027450;28;20185;-94
2023/09/01 06:20:29;;;;;;;469.40;454.63;;;;;;;;;;5039876;28;20276;-92
2023/09/01 06:22:56;;;;;;;469.33;454.73;;;;;;;;;;5040141;28;20285;-93
2023/09/01 06:25:22;;;;;;;479.30;464.37;;;;;;;;;;5016555;28;20177;-94
2023/09/01 06:27:48;;;;;;;430.77;417.53;;;;;;;;;;5002151;28;20625;-92
2023/09/01 06:30:14;;;;;;;423.80;410.97;;;;;;;;;;5022497;28;20184;-93
2023/09/01 06:32:40;;;;;;;427.47;414.60;;;;;;;;;;5022146;28;20219;-94
2023/09/01 06:35:06;;;;;;;462.77;448.23;;;;;;;;;;5004230;28;20224;-93
2023/09/01 06:37:32;;;;;;;466.50;451.87;;;;;;;;;;5040408;28;20189;-92
2023/09/01 06:39:59;;;;;;;456.07;441.77;;;;;;;;;;5038370;28;20202;-92
2023/09/01 06:42:25;;;;;;;489.77;474.70;;;;;;;;;;5037272;28;20213;-93
2023/09/01 06:44:51;;;;;;;512.23;495.13;;;;;;;;;;5034975;28;20188;-91
2023/09/01 06:47:17;;;;;;;493.20;477.57;;;;;;;;;;5035191;28;20189;-92
2023/09/01 06:49:43;;;;;;;467.47;452.77;;;;;;;;;;5035256;28;20178;-91
2023/09/01 06:52:09;;;;;;;526.50;507.83;;;;;;;;;;5034599;28;20206;-92
2023/09/01 06:54:35;;;;;;;553.93;534.93;;;;;;;;;;5039166;28;20242;-92
2023/09/01 06:57:01;;;;;;;474.93;459.80;;;;;;;;;;5022413;28;20186;-91
2023/09/01 06:59:27;;;;;;;509.73;493.47;;;;;;;;;;5003448;28;20183;-93
2023/09/01 07:01:53;;;;;;;525.30;508.37;;;;;;;;;;5014163;28;20196;-93
2023/09/01 07:04:19;;;;;;;503.53;487.33;;;;;;;;;;5042390;28;20197;-93
2023/09/01 07:06:45;;;;;;;507.20;490.83;;;;;;;;;;5042685;28;20192;-92
2023/09/01 07:09:11;;;;;;;445.80;432.13;;;;;;;;;;5044936;28;20191;-93
2023/09/01 07:11:37;;;;;;;412.13;400.00;;;;;;;;;;5023033;28;20201;-92
2023/09/01 07:14:03;;;;;;;492.97;477.47;;;;;;;;;;5021871;28;20293;-91
2023/09/01 07:16:30;;;;;;;491.03;475.10;;;;;;;;;;5022616;28;20174;-92
2023/09/01 07:18:56;;;;;;;497.53;481.77;;;;;;;;;;5020852;28;20179;-91
2023/09/01 07:21:22;;;;;;;438.43;425.10;;;;;;;;;;5021107;28;20217;-92
2023/09/01 07:23:49;;;;;;;473.63;458.93;;;;;;;;;;5019949;28;20194;-92
2023/09/01 07:26:15;;;;;;;469.30;454.33;;;;;;;;;;5025566;28;20209;-92
2023/09/01 07:28:41;;;;;;;418.83;406.37;;;;;;;;;;5036628;28;20290;-92
2023/09/01 07:31:12;;;;;;;443.30;429.90;;;;;;;;;;5037878;28;20190;-92
2023/09/01 07:33:41;;;;;;;466.73;452.47;;;;;;;;;;5036730;28;20213;-92
2023/09/01 07:36:09;;;;;;;521.27;503.07;;;;;;;;;;5037975;28;20187;-95
2023/09/01 07:38:35;;;;;;;458.73;444.63;;;;;;;;;;5037573;28;20202;-92
2023/09/01 07:41:01;;;;;;;440.65;427.45;;;;;;;;;;5040419;28;20194;-93
2023/09/01 07:43:27;;;;;;;447.77;433.90;;;;;;;;;;5033564;28;20212;-92
2023/09/01 07:45:53;;;;;;;484.05;468.05;;;;;;;;;;5039418;28;20253;-91
2023/09/01 07:48:19;;;;;;;532.42;514.92;;;;;;;;;;5039326;28;20321;-92
2023/09/01 07:50:46;;;;;;;586.05;561.40;;;;;;;;;;5040752;28;20183;-91
2023/09/01 07:53:12;;;;;;;595.67;574.63;;;;;;;;;;5039336;28;20220;-93
2023/09/01 07:55:38;;;;;;;554.83;537.00;;;;;;;;;;5039131;28;20211;-91
2023/09/01 07:58:04;;;;;;;598.20;577.55;;;;;;;;;;5039422;28;20180;-92
2023/09/01 08:00:30;;;;;;;553.78;535.28;;;;;;;;;;5022612;28;20187;-91
2023/09/01 08:02:56;;;;;;;564.30;544.65;;;;;;;;;;5018968;28;20236;-94
2023/09/01 08:05:22;;;;;;;616.50;595.17;;;;;;;;;;5020478;28;20421;-90
2023/09/01 08:07:51;;;;;;;576.08;557.08;;;;;;;;;;5053396;28;20182;-91
2023/09/01 08:10:17;;;;;;;566.53;547.72;;;;;;;;;;5054474;28;20195;-93
2023/09/01 08:12:43;;;;;;;621.40;599.13;;;;;;;;;;5058488;28;20214;-93
2023/09/01 08:15:10;;;;;;;550.45;531.75;;;;;;;;;;5058731;28;20218;-93
2023/09/01 08:17:36;;;;;;;558.70;539.85;;;;;;;;;;5049428;28;20182;-91
2023/09/01 08:20:05;;;;;;;554.65;536.25;;;;;;;;;;5017250;28;20181;-91
2023/09/01 08:22:31;;;;;;;652.67;627.42;;;;;;;;;;5018039;28;20180;-93
2023/09/01 08:24:57;;;;;;;601.00;580.58;;;;;;;;;;5017923;28;20209;-94
2023/09/01 08:27:23;;;;;;;570.75;551.33;;;;;;;;;;5018609;28;20224;-93
2023/09/01 08:29:49;;;;;;;546.78;528.60;;;;;;;;;;5025399;28;20283;-92
2023/09/01 08:32:16;;;;;;;544.40;526.63;;;;;;;;;;5032372;28;20244;-93
2023/09/01 08:34:42;;;;;;;603.67;582.65;;;;;;;;;;5025679;28;20216;-92
2023/09/01 08:37:10;;;;;;;555.47;536.45;;;;;;;;;;5023471;28;20189;-92
2023/09/01 08:39:36;;;;;;;576.28;556.72;;;;;;;;;;4999685;28;20216;-94
2023/09/01 08:42:02;;;;;;;599.92;579.17;;;;;;;;;;5016510;28;20190;-92
2023/09/01 08:44:29;;;;;;;569.40;550.55;;;;;;;;;;5017220;28;20292;-92
2023/09/01 08:46:57;;;;;;;535.10;517.15;;;;;;;;;;5016709;28;20329;-90
2023/09/01 08:49:28;;;;;;;507.30;490.85;;;;;;;;;;5016081;28;20303;-91
2023/09/01 08:51:55;;;;;;;502.77;486.70;;;;;;;;;;5020779;28;20433;-93
2023/09/01 08:54:21;;;;;;;498.33;482.33;;;;;;;;;;5016503;28;20227;-93
2023/09/01 08:56:48;;;;;;;499.20;483.55;;;;;;;;;;5015790;28;20188;-92
2023/09/01 08:59:14;;;;;;;548.75;530.95;;;;;;;;;;5015065;28;20197;-93
2023/09/01 09:01:41;;;;;;;571.70;552.25;;;;;;;;;;4997051;28;20277;-92
2023/09/01 09:04:07;;;;;;;522.92;505.98;;;;;;;;;;5014693;28;20276;-92
2023/09/01 09:06:34;;;;;;;547.47;529.28;;;;;;;;;;5028957;28;20268;-92
2023/09/01 09:09:11;;;;;;;601.75;580.63;;;;;;;;;;5037621;28;20188;-91
2023/09/01 09:11:38;;;;;;;561.28;542.28;;;;;;;;;;5054946;28;20201;-92
2023/09/01 09:14:06;;;;;;;623.03;601.15;;;;;;;;;;5044690;28;20205;-94
2023/09/01 09:16:32;;;;;;;576.38;556.72;;;;;;;;;;5028401;28;20186;-92
2023/09/01 09:19:07;;;;;;;578.45;553.38;;;;;;;;;;5013748;28;20637;-93
2023/09/01 09:21:33;;;;;;;515.20;498.63;;;;;;;;;;5012998;28;20189;-92
2023/09/01 09:24:00;;;;;;;535.08;518.00;;;;;;;;;;5014447;28;20202;-93
2023/09/01 09:26:27;;;;;;;549.60;531.25;;;;;;;;;;5014049;28;20292;-92
2023/09/01 09:28:53;;;;;;;557.97;539.70;;;;;;;;;;5021246;28;20193;-91
2023/09/01 09:31:29;;;;;;;536.65;519.45;;;;;;;;;;5013296;28;20229;-92
2023/09/01 09:33:56;;;;;;;515.72;499.33;;;;;;;;;;5014144;28;20217;-92
2023/09/01 09:36:36;;;;;;;577.10;557.92;;;;;;;;;;5014444;28;20170;-92
2023/09/01 09:39:03;;;;;;;545.63;527.67;;;;;;;;;;5014455;28;20202;-93
2023/09/01 09:41:45;;;;;;;587.42;567.58;;;;;;;;;;5015509;28;20174;-92
2023/09/01 09:44:12;;;;;;;570.63;551.67;;;;;;;;;;5015483;28;20200;-93
2023/09/01 09:46:44;;;;;;;555.38;537.20;;;;;;;;;;5015179;28;20170;-93
2023/09/01 09:49:11;;;;;;;552.70;534.63;;;;;;;;;;5015392;28;20177;-91
2023/09/01 09:51:38;;;;;;;546.30;528.22;;;;;;;;;;5014020;28;20174;-92
2023/09/01 09:54:05;;;;;;;550.85;532.08;;;;;;;;;;5027800;28;20205;-93
2023/09/01 09:56:35;;;;;;;537.15;519.63;;;;;;;;;;5020119;28;20215;-93
2023/09/01 09:59:05;;;;;;;562.45;543.90;;;;;;;;;;5015953;28;20174;-92
2023/09/01 10:01:36;;;;;;;582.60;563.10;;;;;;;;;;5015994;28;20181;-93
2023/09/01 10:04:05;;;;;;;549.10;531.10;;;;;;;;;;5016556;28;20413;-92
2023/09/01 10:06:32;;;;;;;566.03;547.17;;;;;;;;;;5031611;28;20184;-92
2023/09/01 10:08:59;;;;;;;599.92;579.40;;;;;;;;;;5036058;28;20230;-92
2023/09/01 10:11:28;;;;;;;597.22;576.97;;;;;;;;;;5054373;28;20176;-93
2023/09/01 10:13:56;;;;;;;614.63;593.50;;;;;;;;;;5054493;28;20278;-94
2023/09/01 10:16:23;;;;;;;622.63;600.90;;;;;;;;;;5053368;28;20209;-94
2023/09/01 10:18:49;;;;;;;607.60;586.80;;;;;;;;;;5023242;28;20191;-91
2023/09/01 10:21:16;;;;;;;638.83;616.40;;;;;;;;;;5033177;28;20193;-92
2023/09/01 10:23:43;;;;;;;557.90;539.45;;;;;;;;;;5035733;28;20200;-92
2023/09/01 10:26:34;;;;;;;600.85;579.83;;;;;;;;;;5053694;28;20237;-91
2023/09/01 10:29:01;;;;;;;614.63;592.97;;;;;;;;;;5050283;28;20181;-91
2023/09/01 10:31:30;;;;;;;532.70;515.08;;;;;;;;;;5027447;28;20554;-92
2023/09/01 10:34:14;;;;;;;602.55;580.22;;;;;;;;;;5016210;28;20256;-93
2023/09/01 10:36:41;;;;;;;582.42;562.80;;;;;;;;;;5015074;28;20170;-93
2023/09/01 10:39:18;;;;;;;594.95;574.85;;;;;;;;;;5014538;28;20170;-92
2023/09/01 10:41:53;;;;;;;590.00;569.65;;;;;;;;;;5015094;28;20630;-93
2023/09/01 10:44:21;;;;;;;557.90;539.22;;;;;;;;;;5030789;28;20204;-92
2023/09/01 10:46:47;;;;;;;568.65;548.97;;;;;;;;;;5033880;28;20231;-94
2023/09/01 10:49:14;;;;;;;589.72;569.13;;;;;;;;;;5027610;28;20186;-92
2023/09/01 10:51:40;;;;;;;643.05;619.70;;;;;;;;;;5017551;28;20827;-93
2023/09/01 10:54:15;;;;;;;677.42;649.63;;;;;;;;;;5028180;28;20295;-92
2023/09/01 10:56:57;;;;;;;621.08;599.22;;;;;;;;;;5035230;28;20283;-92
2023/09/01 10:59:30;;;;;;;544.85;526.78;;;;;;;;;;5035776;28;20400;-93
2023/09/01 11:01:57;;;;;;;578.08;558.58;;;;;;;;;;5035619;28;20177;-93
2023/09/01 11:04:24;;;;;;;586.63;566.53;;;;;;;;;;5036024;28;20197;-92
2023/09/01 11:07:06;;;;;;;611.72;590.05;;;;;;;;;;5035114;28;20169;-93
2023/09/01 11:09:32;;;;;;;582.42;562.38;;;;;;;;;;5044293;28;20309;-95
2023/09/01 11:11:59;;;;;;;607.95;586.67;;;;;;;;;;5063780;28;20517;-92
2023/09/01 11:14:25;;;;;;;632.50;608.67;;;;;;;;;;5020768;28;20822;-92
2023/09/01 11:16:51;;;;;;;591.10;571.25;;;;;;;;;;5024925;28;20169;-92
2023/09/01 11:19:19;;;;;;;646.70;621.90;;;;;;;;;;5025358;28;20184;-93
2023/09/01 11:21:49;;;;;;;719.38;691.55;;;;;;;;;;5026380;28;20195;-92
2023/09/01 11:24:22;;;;;;;746.83;717.35;;;;;;;;;;5026501;28;20201;-92
2023/09/01 11:26:52;;;;;;;676.30;651.63;;;;;;;;;;5026931;28;20211;-93
2023/09/01 11:29:21;;;;;;;699.67;672.30;;;;;;;;;;5024940;28;20363;-93
2023/09/01 11:31:47;;;;;;;687.10;662.03;;;;;;;;;;5027474;28;20181;-93
2023/09/01 11:34:15;;;;;;;762.60;732.13;;;;;;;;;;5025244;28;20220;-92
2023/09/01 11:36:49;;;;;;;773.63;740.90;;;;;;;;;;5024181;28;20259;-93
2023/09/01 11:39:15;;;;;;;817.67;774.88;;;;;;;;;;5021307;28;20189;-94
2023/09/01 11:41:42;;;;;;;829.58;792.65;;;;;;;;;;5037400;28;20184;-91
2023/09/01 11:44:08;;;;;;;790.53;756.88;;;;;;;;;;5028522;28;20577;-93
2023/09/01 11:46:35;;;;;;;802.75;765.83;;;;;;;;;;5026029;28;20185;-92
2023/09/01 11:49:01;;;;;;;791.25;758.17;;;;;;;;;;5028325;28;20180;-92
2023/09/01 11:51:34;;;;;;;759.20;728.72;;;;;;;;;;5028578;28;20184;-94
2023/09/01 11:54:08;;;;;;;760.03;729.38;;;;;;;;;;5023676;28;21333;-93
2023/09/01 11:56:34;;;;;;;792.83;759.17;;;;;;;;;;5024822;28;20240;-92
2023/09/01 11:59:00;;;;;;;851.53;810.17;;;;;;;;;;5034630;28;20196;-92
2023/09/01 12:01:41;;;;;;;802.40;767.88;;;;;;;;;;5028965;28;20200;-92
2023/09/01 12:04:08;;;;;;;816.97;781.00;;;;;;;;;;5026320;28;20213;-93
2023/09/01 12:06:39;;;;;;;838.20;801.17;;;;;;;;;;5032871;28;20197;-92
2023/09/01 12:09:12;;;;;;;815.78;780.53;;;;;;;;;;5027345;28;20672;-92
2023/09/01 12:11:52;;;;;;;824.28;787.58;;;;;;;;;;5022418;28;20660;-93
2023/09/01 12:14:22;;;;;;;796.88;763.03;;;;;;;;;;5019441;28;20839;-94
2023/09/01 12:16:53;;;;;;;778.08;745.00;;;;;;;;;;5027314;28;20177;-91
2023/09/01 12:19:28;;;;;;;797.47;764.05;;;;;;;;;;5014123;28;20200;-94
2023/09/01 12:21:55;;;;;;;768.38;736.92;;;;;;;;;;4997899;28;20463;-89
2023/09/01 12:24:21;;;;;;;770.10;738.17;;;;;;;;;;5018367;28;20200;-90
2023/09/01 12:26:48;;;;;;;802.38;766.00;;;;;;;;;;5018461;28;20181;-91
2023/09/01 12:29:22;;;;;;;800.55;767.00;;;;;;;;;;5028846;28;20209;-95
2023/09/01 12:31:48;;;;;;;773.50;741.55;;;;;;;;;;5044298;22;20256;-89
2023/09/01 12:34:14;;;;;;;792.65;759.40;;;;;;;;;;5022286;28;20189;-90
2023/09/01 12:36:40;;;;;;;739.17;710.80;;;;;;;;;;5023476;28;20558;-91
2023/09/01 12:39:06;;;;;;;741.97;712.60;;;;;;;;;;5005634;28;20197;-90
2023/09/01 12:41:33;;;;;;;752.38;721.45;;;;;;;;;;5028932;28;20181;-91
2023/09/01 12:43:59;;;;;;;785.22;751.40;;;;;;;;;;5028398;28;20177;-91
2023/09/01 12:46:25;;;;;;;810.53;775.38;;;;;;;;;;5013408;28;20185;-89
2023/09/01 12:48:51;;;;;;;780.92;748.97;;;;;;;;;;4987323;28;20202;-91
2023/09/01 12:51:17;;;;;;;820.50;784.63;;;;;;;;;;5004247;28;20179;-90
2023/09/01 12:53:43;;;;;;;819.45;778.95;;;;;;;;;;5006514;28;20194;-91
2023/09/01 12:56:11;;;;;;;754.67;724.15;;;;;;;;;;5006423;28;20663;-89
2023/09/01 12:58:37;;;;;;;799.92;766.28;;;;;;;;;;5006632;28;20174;-91
2023/09/01 13:01:03;;;;;;;784.97;752.42;;;;;;;;;;5005830;28;20198;-90
2023/09/01 13:03:29;;;;;;;832.00;795.75;;;;;;;;;;5003528;28;20660;-90
2023/09/01 13:05:55;;;;;;;833.38;796.95;;;;;;;;;;5016943;28;20191;-90
2023/09/01 13:08:21;;;;;;;785.15;753.45;;;;;;;;;;5023436;28;20268;-91
2023/09/01 13:10:47;;;;;;;753.67;723.35;;;;;;;;;;5024152;28;20201;-91
2023/09/01 13:13:14;;;;;;;769.40;738.00;;;;;;;;;;5024700;28;20220;-90
2023/09/01 13:15:40;;;;;;;775.38;743.38;;;;;;;;;;5005686;28;20209;-90
2023/09/01 13:18:08;;;;;;;769.25;736.47;;;;;;;;;;4986883;28;20336;-90
2023/09/01 13:20:34;;;;;;;808.92;774.55;;;;;;;;;;5003175;28;20916;-90
2023/09/01 13:22:59;;;;;;;1999.90;999.90;;;;;;;;;;5004627;28;20182;-90
2023/09/01 13:25:25;;;;;;;836.50;799.15;;;;;;;;;;5005746;28;20182;-91
2023/09/01 13:27:52;;;;;;;1999.90;999.90;;;;;;;;;;5005143;28;20186;-90
2023/09/01 13:30:18;;;;;;;1999.90;999.90;;;;;;;;;;5025719;28;20232;-92
2023/09/01 13:32:44;;;;;;;1999.90;999.90;;;;;;;;;;5021019;28;20745;-91
2023/09/01 13:35:10;;;;;;;1999.90;999.90;;;;;;;;;;5026883;28;20181;-92
2023/09/01 13:37:36;;;;;;;868.60;828.58;;;;;;;;;;5027274;28;20172;-92
2023/09/01 13:40:03;;;;;;;1148.05;868.97;;;;;;;;;;5029564;28;20225;-93
2023/09/01 13:42:29;;;;;;;863.47;823.85;;;;;;;;;;5029389;28;20181;-92
2023/09/01 13:44:56;;;;;;;872.58;831.60;;;;;;;;;;5035362;28;20177;-93